createdAt,value
2018-01-12T00:00:17.347Z,14.40
2018-01-12T00:02:45.042Z,14.53
2018-01-12T00:05:13.474Z,15.40
2018-01-12T00:07:42.621Z,15.07
2018-01-12T00:10:10.290Z,14.33
2018-01-12T00:12:38.754Z,15.50
2018-01-12T00:15:07.173Z,15.33
2018-01-12T00:17:34.876Z,14.37
2018-01-12T00:20:02.553Z,15.50
2018-01-12T00:22:31.194Z,14.07
2018-01-12T00:24:58.886Z,13.87
2018-01-12T00:27:26.597Z,14.90
2018-01-12T00:29:54.249Z,13.70
2018-01-12T00:32:21.959Z,13.30
2018-01-12T00:34:49.670Z,13.57
2018-01-12T00:37:17.331Z,14.10
2018-01-12T00:39:45.071Z,14.10
2018-01-12T00:42:12.783Z,13.87
2018-01-12T00:44:40.627Z,12.20
2018-01-12T00:47:08.323Z,13.13
2018-01-12T00:49:36.067Z,14.07
2018-01-12T00:52:03.850Z,14.20
2018-01-12T00:54:31.594Z,13.87
2018-01-12T00:56:59.558Z,13.43
2018-01-12T00:59:27.307Z,13.73
2018-01-12T01:01:54.965Z,13.83
2018-01-12T01:04:22.667Z,13.50
2018-01-12T01:06:51.088Z,13.40
2018-01-12T01:09:18.910Z,12.47
2018-01-12T01:11:47.331Z,12.40
2018-01-12T01:14:15.107Z,13.47
2018-01-12T01:16:42.843Z,15.33
2018-01-12T01:19:10.643Z,15.00
2018-01-12T01:21:38.446Z,16.50
2018-01-12T01:24:06.158Z,15.77
2018-01-12T01:26:33.924Z,15.10
2018-01-12T01:29:01.647Z,15.07
2018-01-12T01:31:29.516Z,15.60
2018-01-12T01:33:57.384Z,15.93
2018-01-12T01:36:25.048Z,16.07
2018-01-12T01:38:53.140Z,13.63
2018-01-12T01:41:20.806Z,14.50
2018-01-12T01:43:48.506Z,13.83
2018-01-12T01:46:16.254Z,14.93
2018-01-12T01:48:45.060Z,15.17
2018-01-12T01:51:12.780Z,15.90
2018-01-12T01:53:40.590Z,15.40
2018-01-12T01:56:08.474Z,16.17
2018-01-12T01:58:37.925Z,15.20
2018-01-12T02:01:05.602Z,15.57
2018-01-12T02:03:34.238Z,15.40
2018-01-12T02:06:02.083Z,17.03
2018-01-12T02:08:29.789Z,14.83
2018-01-12T02:10:58.288Z,16.40
2018-01-12T02:13:25.990Z,14.90
2018-01-12T02:15:53.654Z,14.83
2018-01-12T02:18:21.584Z,15.80
2018-01-12T02:20:49.342Z,16.60
2018-01-12T02:23:17.205Z,15.03
2018-01-12T02:25:45.047Z,15.27
2018-01-12T02:28:13.510Z,16.37
2018-01-12T02:30:41.232Z,15.40
2018-01-12T02:33:08.939Z,14.50
2018-01-12T02:35:37.486Z,16.87
2018-01-12T02:38:06.186Z,17.63
2018-01-12T02:40:33.850Z,15.80
2018-01-12T02:46:30.875Z,16.57
2018-01-12T02:48:58.587Z,17.00
2018-01-12T02:51:27.101Z,15.97
2018-01-12T02:53:55.102Z,14.97
2018-01-12T02:56:23.602Z,16.17
2018-01-12T02:58:51.522Z,16.20
2018-01-12T03:01:19.184Z,15.40
2018-01-12T03:03:46.883Z,15.17
2018-01-12T03:06:14.578Z,16.87
2018-01-12T03:08:42.362Z,16.67
2018-01-12T03:11:10.158Z,16.60
2018-01-12T03:13:38.092Z,17.07
2018-01-12T03:16:05.750Z,15.63
2018-01-12T03:18:33.554Z,15.60
2018-01-12T03:21:02.007Z,16.17
2018-01-12T03:23:29.771Z,15.77
2018-01-12T03:26:08.182Z,13.70
2018-01-12T03:28:35.882Z,15.70
2018-01-12T03:31:04.398Z,14.80
2018-01-12T03:33:32.096Z,15.40
2018-01-12T03:35:59.755Z,15.97
2018-01-12T03:38:28.564Z,14.97
2018-01-12T03:40:57.010Z,14.63
2018-01-12T03:43:24.798Z,15.50
2018-01-12T03:45:53.218Z,14.53
2018-01-12T03:51:05.443Z,14.67
2018-01-12T03:53:33.146Z,13.97
2018-01-12T03:56:02.587Z,15.97
2018-01-12T03:58:30.286Z,15.37
2018-01-12T04:00:58.736Z,13.77
2018-01-12T04:03:26.560Z,14.33
2018-01-12T04:05:54.274Z,14.90
2018-01-12T04:08:22.224Z,14.77
2018-01-12T04:10:49.886Z,14.40
2018-01-12T04:13:17.609Z,14.87
2018-01-12T04:15:45.392Z,13.70
2018-01-12T04:18:13.059Z,13.67
2018-01-12T04:20:40.879Z,14.90
2018-01-12T04:23:08.559Z,13.90
2018-01-12T04:25:37.022Z,14.03
2018-01-12T04:28:07.488Z,12.77
2018-01-12T04:30:35.194Z,14.13
2018-01-12T04:33:02.939Z,13.00
2018-01-12T04:35:30.701Z,15.07
2018-01-12T04:37:58.385Z,14.80
2018-01-12T04:40:26.909Z,12.50
2018-01-12T04:42:54.583Z,13.33
2018-01-12T04:45:22.509Z,14.93
2018-01-12T04:47:50.282Z,12.90
2018-01-12T04:50:18.149Z,13.63
2018-01-12T04:52:46.017Z,12.93
2018-01-12T04:55:13.739Z,13.03
2018-01-12T04:57:42.176Z,12.67
2018-01-12T05:00:09.991Z,13.00
2018-01-12T05:02:37.671Z,13.80
2018-01-12T05:05:05.388Z,14.37
2018-01-12T05:07:33.185Z,14.00
2018-01-12T05:10:00.924Z,12.70
2018-01-12T05:12:29.452Z,14.10
2018-01-12T05:14:57.160Z,15.40
2018-01-12T05:17:24.962Z,14.73
2018-01-12T05:19:52.844Z,14.30
2018-01-12T05:22:21.473Z,14.60
2018-01-12T05:24:50.084Z,14.03
2018-01-12T05:27:17.772Z,13.50
2018-01-12T05:29:45.462Z,12.83
2018-01-12T05:32:13.176Z,12.80
2018-01-12T05:34:40.888Z,11.60
2018-01-12T05:37:09.787Z,11.43
2018-01-12T05:39:38.327Z,12.63
2018-01-12T05:42:05.984Z,13.93
2018-01-12T05:44:33.822Z,12.50
2018-01-12T05:47:01.522Z,13.70
2018-01-12T05:49:29.871Z,14.40
2018-01-12T05:51:57.671Z,14.97
2018-01-12T05:54:25.432Z,14.70
2018-01-12T05:56:53.956Z,14.13
2018-01-12T05:59:21.678Z,14.73
2018-01-12T06:02:01.362Z,14.67
2018-01-12T06:04:40.948Z,14.77
2018-01-12T06:07:08.706Z,14.50
2018-01-12T06:09:36.539Z,13.57
2018-01-12T06:12:04.190Z,17.50
2018-01-12T06:14:32.838Z,15.70
2018-01-12T06:17:00.530Z,15.83
2018-01-12T06:19:29.952Z,15.27
2018-01-12T06:21:57.849Z,12.60
2018-01-12T06:24:26.319Z,11.50
2018-01-12T06:26:54.132Z,12.77
2018-01-12T06:29:21.838Z,13.10
2018-01-12T06:31:49.489Z,14.40
2018-01-12T06:34:17.291Z,12.90
2018-01-12T06:36:45.752Z,13.37
2018-01-12T06:39:14.297Z,13.10
2018-01-12T06:41:42.076Z,12.77
2018-01-12T06:44:09.879Z,13.80
2018-01-12T06:46:37.702Z,14.13
2018-01-12T06:49:06.360Z,13.10
2018-01-12T06:51:34.110Z,13.77
2018-01-12T06:54:02.183Z,12.87
2018-01-12T06:56:29.891Z,12.87
2018-01-12T06:58:58.314Z,15.03
2018-01-12T07:01:26.022Z,12.33
2018-01-12T07:03:53.687Z,13.20
2018-01-12T07:06:22.359Z,12.90
2018-01-12T07:08:50.047Z,11.47
2018-01-12T07:11:19.064Z,12.33
2018-01-12T07:13:46.815Z,11.07
2018-01-12T07:16:14.549Z,11.77
2018-01-12T07:18:43.247Z,13.17
2018-01-12T07:21:22.886Z,12.30
2018-01-12T07:23:50.591Z,12.60
2018-01-12T07:26:18.299Z,13.10
2018-01-12T07:28:46.745Z,12.90
2018-01-12T07:31:14.664Z,13.77
2018-01-12T07:33:42.329Z,14.07
2018-01-12T07:36:10.052Z,12.97
2018-01-12T07:38:38.852Z,29.60
2018-01-12T07:41:06.567Z,21.10
2018-01-12T07:43:34.988Z,14.77
2018-01-12T07:46:03.470Z,11.87
2018-01-12T07:48:32.057Z,12.47
2018-01-12T07:50:59.774Z,13.67
2018-01-12T07:53:27.435Z,12.80
2018-01-12T07:55:57.806Z,12.93
2018-01-12T07:58:25.473Z,12.40
2018-01-12T08:00:59.167Z,12.97
2018-01-12T08:03:28.031Z,12.40
2018-01-12T08:05:56.510Z,13.10
2018-01-12T08:08:25.068Z,13.47
2018-01-12T08:10:52.784Z,13.73
2018-01-12T08:13:20.507Z,12.00
2018-01-12T08:15:48.326Z,13.30
2018-01-12T08:18:15.984Z,14.13
2018-01-12T08:20:45.356Z,13.47
2018-01-12T08:23:13.147Z,12.80
2018-01-12T08:25:40.845Z,13.97
2018-01-12T08:28:09.991Z,14.23
2018-01-12T08:30:37.738Z,14.50
2018-01-12T08:33:05.390Z,13.83
2018-01-12T08:35:33.191Z,14.60
2018-01-12T08:38:00.858Z,14.83
2018-01-12T08:40:28.662Z,16.60
2018-01-12T08:42:56.323Z,15.77
2018-01-12T08:45:24.208Z,14.97
2018-01-12T08:47:51.863Z,24.17
2018-01-12T08:50:19.655Z,21.93
2018-01-12T08:52:48.132Z,17.80
2018-01-12T08:55:15.883Z,15.13
2018-01-12T08:57:43.535Z,15.27
2018-01-12T09:00:11.486Z,13.03
2018-01-12T09:02:39.150Z,15.93
2018-01-12T09:05:06.998Z,15.27
2018-01-12T09:07:34.741Z,15.77
2018-01-12T09:10:03.762Z,17.40
2018-01-12T09:12:31.580Z,16.13
2018-01-12T09:15:11.906Z,16.40
2018-01-12T09:17:48.045Z,22.87
2018-01-12T09:20:16.836Z,59.73
2018-01-12T09:22:48.281Z,17.70
2018-01-12T09:25:26.874Z,14.83
2018-01-12T09:27:54.551Z,13.40
2018-01-12T09:30:22.325Z,14.47
2018-01-12T09:32:50.074Z,15.80
2018-01-12T09:35:18.675Z,16.07
2018-01-12T09:37:46.479Z,16.30
2018-01-12T09:43:20.244Z,19.40
2018-01-12T09:45:48.823Z,16.93
2018-01-12T09:48:26.237Z,16.27
2018-01-12T09:50:54.781Z,16.93
2018-01-12T09:53:22.536Z,15.13
2018-01-12T09:55:50.234Z,15.70
2018-01-12T09:58:17.935Z,14.07
2018-01-12T10:01:04.430Z,14.93
2018-01-12T10:03:32.956Z,15.47
2018-01-12T10:06:00.799Z,15.50
2018-01-12T10:08:28.509Z,15.47
2018-01-12T10:10:56.580Z,17.53
2018-01-12T10:13:25.018Z,18.63
2018-01-12T10:15:52.723Z,17.70
2018-01-12T10:18:26.256Z,16.67
2018-01-12T10:20:54.499Z,15.83
2018-01-12T10:23:23.153Z,24.90
2018-01-12T10:25:50.822Z,31.50
2018-01-12T10:28:19.654Z,16.90
2018-01-12T10:31:02.951Z,16.03
2018-01-12T10:36:40.307Z,17.97
2018-01-12T10:39:19.807Z,15.83
2018-01-12T10:42:00.171Z,22.13
2018-01-12T10:44:28.700Z,23.53
2018-01-12T10:50:17.877Z,15.47
2018-01-12T10:52:49.570Z,17.50
2018-01-12T10:55:18.078Z,16.83
2018-01-12T10:57:47.123Z,16.47
2018-01-12T11:00:26.793Z,16.10
2018-01-12T11:02:55.251Z,28.07
2018-01-12T11:05:23.679Z,19.87
2018-01-12T11:07:52.665Z,17.50
2018-01-12T11:10:20.344Z,17.70
2018-01-12T11:12:48.195Z,15.97
2018-01-12T11:15:15.935Z,15.57
2018-01-12T11:17:43.653Z,16.17
2018-01-12T11:20:11.435Z,16.23
2018-01-12T11:22:39.902Z,17.23
2018-01-12T11:25:07.574Z,18.47
2018-01-12T11:27:36.128Z,17.00
2018-01-12T11:30:03.815Z,17.37
2018-01-12T11:35:11.580Z,17.00
2018-01-12T11:37:39.291Z,18.37
2018-01-12T11:40:07.966Z,17.23
2018-01-12T11:42:35.671Z,15.67
2018-01-12T11:47:52.435Z,17.93
2018-01-12T11:50:21.078Z,18.80
2018-01-12T11:52:48.803Z,18.17
2018-01-12T11:55:16.450Z,18.40
2018-01-12T11:57:46.025Z,22.50
2018-01-12T12:00:13.949Z,19.13
2018-01-12T12:02:41.759Z,18.63
2018-01-12T12:05:09.504Z,19.13
2018-01-12T12:07:37.211Z,17.50
2018-01-12T12:10:05.019Z,19.03
2018-01-12T12:12:32.721Z,18.60
2018-01-12T12:15:00.774Z,19.70
2018-01-12T12:17:30.770Z,17.63
2018-01-12T12:19:58.443Z,19.20
2018-01-12T12:22:26.673Z,20.30
2018-01-12T12:24:54.334Z,19.37
2018-01-12T12:27:22.112Z,19.30
2018-01-12T12:29:49.774Z,18.33
2018-01-12T12:32:17.466Z,17.87
2018-01-12T12:34:45.882Z,18.70
2018-01-12T12:37:13.575Z,16.30
2018-01-12T12:39:41.275Z,18.07
2018-01-12T12:42:09.706Z,19.43
2018-01-12T12:44:37.466Z,19.13
2018-01-12T12:47:05.217Z,19.60
2018-01-12T12:49:32.923Z,17.87
2018-01-12T12:52:00.578Z,18.60
2018-01-12T12:54:29.407Z,19.40
2018-01-12T12:56:57.093Z,18.70
2018-01-12T12:59:24.836Z,18.03
2018-01-12T13:01:52.675Z,19.97
2018-01-12T13:04:20.479Z,19.80
2018-01-12T13:06:48.249Z,19.30
2018-01-12T13:09:16.026Z,20.60
2018-01-12T13:11:43.673Z,19.07
2018-01-12T13:14:11.442Z,19.20
2018-01-12T13:16:39.110Z,19.30
2018-01-12T13:19:14.290Z,20.33
2018-01-12T13:21:42.081Z,20.40
2018-01-12T13:24:10.604Z,18.57
2018-01-12T13:26:38.379Z,19.40
2018-01-12T13:29:06.470Z,19.47
2018-01-12T13:31:34.167Z,19.27
2018-01-12T13:34:01.903Z,20.27
2018-01-12T13:36:29.582Z,24.23
2018-01-12T13:38:57.284Z,24.87
2018-01-12T13:41:25.720Z,21.07
2018-01-12T13:43:53.422Z,19.60
2018-01-12T13:46:21.846Z,21.83
2018-01-12T13:48:49.547Z,19.37
2018-01-12T13:51:17.977Z,20.60
2018-01-12T13:53:45.678Z,20.20
2018-01-12T13:56:14.201Z,26.97
2018-01-12T13:58:41.911Z,23.83
2018-01-12T14:01:09.575Z,22.73
2018-01-12T14:03:37.274Z,23.23
2018-01-12T14:06:05.227Z,21.00
2018-01-12T14:08:33.161Z,41.40
2018-01-12T14:11:02.202Z,27.17
2018-01-12T14:13:29.995Z,24.67
2018-01-12T14:15:57.711Z,21.27
2018-01-12T14:18:25.414Z,23.10
2018-01-12T14:20:53.071Z,23.17
2018-01-12T14:23:21.538Z,59.33
2018-01-12T14:25:49.190Z,41.10
2018-01-12T14:28:16.886Z,32.43
2018-01-12T14:30:44.558Z,23.23
2018-01-12T14:33:13.019Z,28.87
2018-01-12T14:35:40.674Z,46.43
2018-01-12T14:38:08.366Z,43.20
2018-01-12T14:40:36.789Z,26.33
2018-01-12T14:43:05.249Z,29.57
2018-01-12T14:45:32.906Z,24.50
2018-01-12T14:48:00.810Z,58.20
2018-01-12T14:50:28.467Z,26.53
2018-01-12T14:52:56.113Z,29.67
2018-01-12T14:55:23.810Z,32.23
2018-01-12T14:57:52.272Z,22.70
2018-01-12T15:00:19.970Z,26.07
2018-01-12T15:02:47.619Z,22.27
2018-01-12T15:05:16.078Z,26.50
2018-01-12T15:07:43.734Z,33.40
2018-01-12T15:10:11.434Z,28.33
2018-01-12T15:12:39.094Z,24.10
2018-01-12T15:15:06.834Z,24.40
2018-01-12T15:17:35.264Z,23.57
2018-01-12T15:20:02.987Z,22.50
2018-01-12T15:22:30.643Z,22.33
2018-01-12T15:24:58.339Z,24.87
2018-01-12T15:27:26.022Z,23.47
2018-01-12T15:29:53.728Z,22.70
2018-01-12T15:32:21.426Z,21.60
2018-01-12T15:34:49.125Z,23.17
2018-01-12T15:37:17.550Z,23.13
2018-01-12T15:39:45.511Z,23.80
2018-01-12T15:42:13.162Z,22.43
2018-01-12T15:44:40.870Z,22.30
2018-01-12T15:47:08.522Z,30.30
2018-01-12T15:49:36.221Z,32.57
2018-01-12T15:52:04.652Z,33.57
2018-01-12T15:54:32.371Z,31.77
2018-01-12T15:57:00.045Z,34.20
2018-01-12T15:59:27.755Z,37.20
2018-01-12T16:01:55.415Z,25.80
2018-01-12T16:04:23.120Z,23.10
2018-01-12T16:06:50.858Z,25.57
2018-01-12T16:09:19.336Z,32.30
2018-01-12T16:11:46.995Z,34.90
2018-01-12T16:14:15.462Z,25.03
2018-01-12T16:16:43.911Z,25.03
2018-01-12T16:19:11.830Z,22.50
2018-01-12T16:21:39.571Z,23.40
2018-01-12T16:24:08.038Z,20.63
2018-01-12T16:26:36.536Z,21.70
2018-01-12T16:29:05.042Z,22.67
2018-01-12T16:31:32.704Z,21.20
2018-01-12T16:34:00.403Z,20.07
2018-01-12T16:36:28.058Z,20.97
2018-01-12T16:38:55.715Z,23.03
2018-01-12T16:41:23.456Z,22.07
2018-01-12T16:43:51.129Z,20.43
2018-01-12T16:46:18.851Z,20.33
2018-01-12T16:48:46.778Z,20.13
2018-01-12T16:51:15.247Z,22.30
2018-01-12T16:53:42.905Z,23.30
2018-01-12T16:56:10.614Z,23.57
2018-01-12T16:58:38.275Z,22.90
2018-01-12T17:01:05.975Z,22.30
2018-01-12T17:03:33.639Z,28.00
2018-01-12T17:06:01.343Z,33.90
2018-01-12T17:08:29.003Z,30.73
2018-01-12T17:10:56.709Z,30.57
2018-01-12T17:13:24.423Z,27.30
2018-01-12T17:15:52.118Z,26.10
2018-01-12T17:18:19.822Z,23.17
2018-01-12T17:20:48.286Z,22.73
2018-01-12T17:23:15.975Z,21.70
2018-01-12T17:25:43.683Z,23.27
2018-01-12T17:28:11.339Z,22.23
2018-01-12T17:30:39.034Z,19.83
2018-01-12T17:33:07.465Z,22.07
2018-01-12T17:35:35.155Z,27.60
2018-01-12T17:38:02.819Z,22.10
2018-01-12T17:40:30.518Z,22.17
2018-01-12T17:42:58.261Z,29.23
2018-01-12T17:45:26.011Z,27.65
2018-01-12T17:47:54.463Z,22.37
2018-01-12T17:50:22.167Z,19.57
2018-01-12T17:52:49.866Z,19.30
2018-01-12T17:55:17.725Z,21.87
2018-01-12T17:57:45.646Z,20.53
2018-01-12T18:00:14.167Z,19.00
2018-01-12T18:02:41.890Z,21.50
2018-01-12T18:05:10.450Z,18.73
2018-01-12T18:07:38.421Z,19.80
2018-01-12T18:10:07.046Z,18.63
2018-01-12T18:12:34.853Z,20.77
2018-01-12T18:15:02.697Z,18.93
2018-01-12T18:17:30.385Z,20.00
2018-01-12T18:19:58.085Z,20.10
2018-01-12T18:22:26.249Z,18.17
2018-01-12T18:24:53.995Z,20.50
2018-01-12T18:27:21.798Z,19.90
2018-01-12T18:29:49.508Z,20.90
2018-01-12T18:32:18.167Z,19.60
2018-01-12T18:34:45.897Z,21.60
2018-01-12T18:37:13.613Z,22.17
2018-01-12T18:39:42.289Z,20.77
2018-01-12T18:42:10.798Z,20.97
2018-01-12T18:44:38.638Z,22.83
2018-01-12T18:47:07.266Z,21.67
2018-01-12T18:49:34.963Z,21.23
2018-01-12T18:52:02.996Z,24.10
2018-01-12T18:54:30.798Z,25.50
2018-01-12T18:56:59.287Z,25.03
2018-01-12T18:59:27.775Z,24.37
2018-01-12T19:01:56.405Z,23.90
2018-01-12T19:04:24.221Z,24.60
2018-01-12T19:06:52.466Z,25.00
2018-01-12T19:09:20.300Z,23.13
2018-01-12T19:11:48.003Z,23.90
2018-01-12T19:14:16.725Z,26.50
2018-01-12T19:16:46.954Z,24.50
2018-01-12T19:19:14.949Z,22.30
2018-01-12T19:21:42.646Z,23.93
2018-01-12T19:24:11.137Z,24.53
2018-01-12T19:26:38.927Z,22.47
2018-01-12T19:29:06.747Z,23.17
2018-01-12T19:31:34.658Z,23.70
2018-01-12T19:34:02.329Z,23.33
2018-01-12T19:36:30.071Z,20.87
2018-01-12T19:38:57.725Z,20.10
2018-01-12T19:41:25.482Z,21.00
2018-01-12T19:43:53.147Z,19.70
2018-01-12T19:46:20.854Z,18.83
2018-01-12T19:48:48.515Z,20.77
2018-01-12T19:51:16.553Z,20.97
2018-01-12T19:53:44.240Z,26.70
2018-01-12T19:56:12.177Z,23.90
2018-01-12T19:58:39.835Z,22.40
2018-01-12T20:01:07.688Z,20.80
2018-01-12T20:03:35.461Z,20.80
2018-01-12T20:06:03.367Z,20.33
2018-01-12T20:08:31.140Z,19.33
2018-01-12T20:10:59.622Z,19.80
2018-01-12T20:13:27.477Z,16.67
2018-01-12T20:15:56.030Z,16.40
2018-01-12T20:18:23.688Z,15.60
2018-01-12T20:20:51.686Z,15.57
2018-01-12T20:23:20.122Z,16.00
2018-01-12T20:25:47.930Z,15.43
2018-01-12T20:28:16.044Z,16.60
2018-01-12T20:30:44.132Z,17.03
2018-01-12T20:33:11.848Z,15.43
2018-01-12T20:35:39.610Z,13.13
2018-01-12T20:38:07.272Z,13.60
2018-01-12T20:40:35.056Z,13.53
2018-01-12T20:43:02.715Z,13.47
2018-01-12T20:45:30.614Z,12.03
2018-01-12T20:47:59.076Z,13.03
2018-01-12T20:50:26.734Z,13.10
2018-01-12T20:52:54.460Z,13.07
2018-01-12T20:55:22.174Z,12.87
2018-01-12T20:57:50.708Z,12.63
2018-01-12T21:00:18.407Z,11.20
2018-01-12T21:02:46.145Z,12.47
2018-01-12T21:05:13.817Z,12.57
2018-01-12T21:07:41.546Z,11.77
2018-01-12T21:10:09.530Z,11.87
2018-01-12T21:12:37.855Z,13.07
2018-01-12T21:15:05.561Z,13.53
2018-01-12T21:17:33.265Z,12.90
2018-01-12T21:20:01.693Z,17.93
2018-01-12T21:22:29.401Z,13.63
2018-01-12T21:24:57.109Z,14.43
2018-01-12T21:27:25.599Z,13.53
2018-01-12T21:29:53.748Z,14.27
2018-01-12T21:32:21.574Z,13.73
2018-01-12T21:34:50.065Z,14.27
2018-01-12T21:37:18.535Z,13.20
2018-01-12T21:39:46.955Z,13.47
2018-01-12T21:42:14.658Z,13.73
2018-01-12T21:44:42.409Z,12.70
2018-01-12T21:47:10.124Z,13.00
2018-01-12T21:49:37.797Z,12.07
2018-01-12T21:52:05.506Z,13.47
2018-01-12T21:54:33.950Z,12.33
2018-01-12T21:57:01.651Z,14.23
2018-01-12T21:59:30.114Z,14.40
2018-01-12T22:01:57.815Z,13.40
2018-01-12T22:04:25.472Z,13.50
2018-01-12T22:06:53.185Z,14.20
2018-01-12T22:09:20.855Z,12.73
2018-01-12T22:11:48.551Z,12.83
2018-01-12T22:14:16.210Z,12.63
2018-01-12T22:16:43.912Z,14.47
2018-01-12T22:19:11.579Z,14.00
2018-01-12T22:21:39.290Z,13.30
2018-01-12T22:24:06.954Z,14.47
2018-01-12T22:26:34.686Z,14.60
2018-01-12T22:29:03.124Z,14.20
2018-01-12T22:31:30.848Z,15.67
2018-01-12T22:33:58.525Z,14.97
2018-01-12T22:36:26.235Z,13.27
2018-01-12T22:38:54.666Z,14.50
2018-01-12T22:41:22.365Z,14.63
2018-01-12T22:43:50.024Z,14.80
2018-01-12T22:46:17.726Z,15.00
2018-01-12T22:48:45.378Z,14.73
2018-01-12T22:51:13.083Z,14.27
2018-01-12T22:53:40.742Z,13.73
2018-01-12T22:56:08.455Z,15.00
2018-01-12T22:58:36.114Z,14.57
2018-01-12T23:01:03.811Z,14.47
2018-01-12T23:03:31.504Z,14.20
2018-01-12T23:05:59.195Z,14.97
2018-01-12T23:08:26.896Z,14.40
2018-01-12T23:10:54.577Z,15.60
2018-01-12T23:13:22.266Z,15.40
2018-01-12T23:15:50.690Z,15.27
2018-01-12T23:18:18.391Z,15.57
2018-01-12T23:20:46.810Z,16.13
2018-01-12T23:23:14.513Z,15.33
2018-01-12T23:25:42.166Z,14.83
2018-01-12T23:28:09.862Z,14.90
2018-01-12T23:30:37.572Z,14.57
2018-01-12T23:33:05.266Z,14.27
2018-01-12T23:35:33.690Z,15.03
2018-01-12T23:38:01.399Z,15.20
2018-01-12T23:40:29.817Z,16.00
2018-01-12T23:42:57.530Z,14.83
2018-01-12T23:45:25.192Z,14.70
2018-01-12T23:47:52.885Z,14.07
2018-01-12T23:50:20.567Z,15.53
2018-01-12T23:52:48.292Z,15.70
2018-01-12T23:55:15.958Z,16.80
2018-01-12T23:57:43.663Z,14.70
